Cortez, CO

12:49 AM MDT on March 27, 2017 (GMT -0600)
North Cortez | | Change Station
Active Advisory: Special Statement

Elev 6120 ft 37.36 °N, 108.57 °W | Updated 16 seconds ago

Clear
Clear
32.2 °F
Feels Like 32 °F
N
0.0
Wind Variable Wind from South
Gusts 0.0 mph

Today
High -- | Low -- °F
--% Chance of Precip.
Yesterday
High -- | Low -- °F
Precip. -- in
Pressure 29.96 in
Visibility 10.0 miles
Clouds Clear
Windchill 32 °F
Dew Point 31 °F
Humidity 95%
Rainfall 0.00 in
Snow Depth Not available.
7:06 AM 7:32 PM
Waning Crescent, 1% visible
METAR KCEZ 270553Z AUTO 07006KT 10SM CLR 02/00 A3002 RMK AO2 SLP144 T00220000 10139 20017 50007
Pressure 29.96 in
Visibility 10.0 miles
Clouds Clear
Windchill 32 °F
Dew Point 31 °F
Humidity 95%
Rainfall 0.00 in
Snow Depth Not available.
7:06 AM 7:32 PM
Waning Crescent, 1% visible
METAR KCEZ 270553Z AUTO 07006KT 10SM CLR 02/00 A3002 RMK AO2 SLP144 T00220000 10139 20017 50007

Get Your Daily Forecast Email!

Thanks for signing up!

Be on the lookout for a verification email in your inbox.

You'll start receiving severe weather alerts in your inbox..

×

10-Day Weather Forecast

Almanac

Astronomy

Mar. 27, 2017 Rise Set
Actual Time
Civil Twilight
Nautical Twilight
Astronomical Twilight
Moon
Length of Visible Light
Length of Day
Tomorrow will be .
, % of the Moon is Illuminated

Today's Extremes

State Highs State Lows

Community

WunderPhotos

Upload Photos

1,962,540 photos uploaded!

WunderBlog® & News

Nearby

Air Quality

  Air Quality AQ Index Pollutant
Not available.

Snow Depth

Station Depth Elevation

Earthquake Activity

City Distance Mag. Time & Date
Minimum magnitude displayed is 2.5.

Earthquake Activity

City Distance Mag. Time & Date
Minimum magnitude displayed is 2.5.

Coastal Water Temperatures

Place Temperature

Stations

Nearby Weather Stations

Station Location Temp. Windchill Dew Point Humidity Wind Precip. Elev Updated Type
                   

Watches & Warnings

Special Statement
Issued: 1:34 PM MDT Mar. 26, 2017 – National Weather Service

... Mountain snowfall continues through the week...

Two storm systems will take aim at eastern Utah and western
Colorado this week. The first will arrive Monday evening and
continue through early Wednesday, bringing a period of moderate
snowfall to the mountains with rain showers in the valleys. Snow
levels will drop from 8000 feet Tuesday morning to around 7000
feet by the time precipitation ends on Wednesday morning. 6 to 12
inches of snowfall may fall across the San Juans, central Colorado
mountains, and Flat Tops with locally higher amounts in the
highest elevations.

The second storm system will arrive on Thursday evening and will
last through Saturday. This storm will once again bring a period
of accumulating snowfall to all mountain zones, however there is
still uncertainty regarding snowfall totals at this time.